Time;durP1;ratioP1;P1;durP2;ratioP2;P2;SDS_P1;SDS_P2;PMS_P1;PMS_P2;Temp;Humidity;BMP_temperature;BMP_pressure;BME280_temperature;BME280_humidity;BME280_pressure;Samples;Min_cycle;Max_cycle;Signal;HPM_P1;HPM_P2
2022/06/04 00:00:42;;;;;;;9.45;4.85;;;14.60;62.40;;;;;;4793665;29;20054;-84
2022/06/04 00:03:09;;;;;;;10.82;5.75;;;14.60;62.60;;;;;;4801469;29;20129;-84
2022/06/04 00:05:41;;;;;;;8.50;4.90;;;14.50;62.80;;;;;;4801151;29;20042;-84
2022/06/04 00:08:09;;;;;;;7.45;5.07;;;14.50;62.90;;;;;;4822201;29;20547;-83
2022/06/04 00:16:11;;;;;;;9.73;4.88;;;14.40;62.90;;;;;;4821502;29;20483;-85
2022/06/04 00:18:39;;;;;;;9.52;5.30;;;14.40;62.90;;;;;;4814784;29;20046;-84
2022/06/04 00:21:06;;;;;;;7.30;5.03;;;14.40;63.20;;;;;;4801525;29;20050;-85
2022/06/04 00:23:32;;;;;;;7.65;5.30;;;14.30;63.10;;;;;;4804921;29;20483;-84
2022/06/04 00:26:00;;;;;;;10.15;6.25;;;14.30;63.30;;;;;;4792342;29;20050;-85
2022/06/04 00:28:27;;;;;;;6.75;5.03;;;14.30;63.50;;;;;;4813621;29;20047;-84
2022/06/04 00:30:54;;;;;;;7.10;4.80;;;14.30;63.40;;;;;;4809422;29;20399;-85
2022/06/04 00:33:19;;;;;;;9.52;5.55;;;14.20;63.30;;;;;;4791285;29;20137;-85
2022/06/04 00:35:47;;;;;;;7.90;4.90;;;14.20;63.40;;;;;;4818788;29;20137;-85
2022/06/04 00:38:16;;;;;;;8.20;4.90;;;14.20;63.60;;;;;;4809229;29;20039;-84
2022/06/04 00:40:44;;;;;;;11.85;5.60;;;14.20;63.70;;;;;;4791640;29;20077;-85
2022/06/04 00:43:10;;;;;;;8.43;5.53;;;14.20;63.70;;;;;;4800580;29;20054;-85
2022/06/04 00:45:36;;;;;;;5.78;4.05;;;14.10;63.70;;;;;;4790242;29;20051;-83
2022/06/04 00:48:08;;;;;;;5.78;4.80;;;14.10;63.40;;;;;;4818305;29;20047;-84
2022/06/04 00:50:40;;;;;;;7.97;4.30;;;14.10;63.50;;;;;;4832249;29;20070;-84
2022/06/04 00:53:10;;;;;;;5.93;4.55;;;14.20;63.50;;;;;;4824185;29;20051;-83
2022/06/04 00:55:58;;;;;;;10.43;6.30;;;14.10;63.40;;;;;;4804351;29;20494;-84
2022/06/04 00:58:59;;;;;;;11.65;6.47;;;14.10;63.90;;;;;;4817449;29;20065;-84
2022/06/04 01:01:28;;;;;;;14.93;6.65;;;14.10;63.90;;;;;;4817184;29;20138;-84
2022/06/04 01:04:03;;;;;;;8.45;4.93;;;14.00;63.80;;;;;;4806599;29;20053;-84
2022/06/04 01:06:48;;;;;;;9.27;6.05;;;14.00;63.80;;;;;;4820116;29;20046;-83
2022/06/04 01:09:40;;;;;;;11.77;5.88;;;14.00;64.10;;;;;;4806271;29;20096;-83
2022/06/04 01:12:26;;;;;;;9.15;5.70;;;14.00;64.10;;;;;;4793983;29;20042;-85
2022/06/04 01:15:10;;;;;;;10.68;6.22;;;13.90;64.30;;;;;;4816418;29;20125;-84
2022/06/04 01:18:03;;;;;;;9.82;5.28;;;13.90;64.20;;;;;;4823573;29;20089;-84
2022/06/04 01:20:56;;;;;;;6.43;4.75;;;13.90;64.30;;;;;;4800344;29;20499;-83
2022/06/04 01:23:33;;;;;;;6.10;4.75;;;13.90;64.20;;;;;;4825504;29;20096;-83
2022/06/04 01:26:39;;;;;;;11.60;6.22;;;13.80;64.00;;;;;;4820296;29;20545;-83
2022/06/04 01:29:17;;;;;;;9.52;5.47;;;13.80;64.40;;;;;;4813003;29;20050;-83
2022/06/04 01:31:49;;;;;;;7.15;5.03;;;13.80;64.30;;;;;;4821104;29;20550;-84
2022/06/04 01:34:21;;;;;;;10.05;6.07;;;13.80;64.30;;;;;;4823991;29;20053;-84
2022/06/04 01:37:04;;;;;;;9.05;6.10;;;13.80;64.40;;;;;;4805706;29;20054;-83
2022/06/04 01:41:03;;;;;;;10.07;6.55;;;13.80;64.60;;;;;;4826560;29;20062;-82
2022/06/04 01:42:21;;;;;;;9.02;7.00;;;13.80;64.60;;;;;;4793827;29;20081;-84
2022/06/04 01:44:50;;;;;;;8.90;5.75;;;13.70;64.60;;;;;;4825261;29;20133;-84
2022/06/04 01:47:18;;;;;;;9.13;5.90;;;13.70;64.40;;;;;;4795595;29;20054;-84
2022/06/04 01:49:52;;;;;;;12.05;6.68;;;13.70;64.40;;;;;;4821051;29;20074;-83
2022/06/04 01:52:25;;;;;;;7.72;5.70;;;13.70;64.50;;;;;;4815969;29;20066;-84
2022/06/04 01:55:17;;;;;;;8.80;4.68;;;13.70;64.50;;;;;;4809098;29;20042;-84
2022/06/04 01:58:00;;;;;;;13.85;7.13;;;13.60;64.40;;;;;;4796182;29;20065;-83
2022/06/04 02:00:40;;;;;;;11.27;6.90;;;13.60;64.40;;;;;;4816135;29;20051;-83
2022/06/04 02:03:11;;;;;;;15.82;7.35;;;13.60;64.60;;;;;;4801594;29;20129;-84
2022/06/04 02:05:44;;;;;;;7.32;5.43;;;13.60;64.60;;;;;;4813669;29;20104;-84
2022/06/04 02:08:14;;;;;;;10.43;7.30;;;13.50;64.60;;;;;;4790537;29;20069;-84
2022/06/04 02:10:49;;;;;;;11.13;6.47;;;13.50;65.00;;;;;;4805695;29;20055;-84
2022/06/04 02:13:16;;;;;;;10.40;6.88;;;13.60;64.60;;;;;;4815454;29;20089;-84
2022/06/04 02:15:50;;;;;;;11.45;7.30;;;13.50;64.70;;;;;;4802186;29;20061;-84
2022/06/04 02:18:16;;;;;;;10.77;6.88;;;13.50;64.80;;;;;;4816150;29;20043;-84
2022/06/04 02:20:42;;;;;;;10.02;5.70;;;13.40;64.60;;;;;;4796722;29;20060;-86
2022/06/04 02:23:08;;;;;;;13.30;6.07;;;13.40;64.60;;;;;;4802126;29;20050;-85
2022/06/04 02:25:34;;;;;;;9.35;5.97;;;13.40;64.60;;;;;;4825127;29;20077;-85
2022/06/04 02:28:01;;;;;;;9.73;6.63;;;13.40;64.60;;;;;;4811815;29;20046;-86
2022/06/04 02:30:39;;;;;;;11.68;6.70;;;13.40;64.50;;;;;;4810845;29;20130;-83
2022/06/04 02:33:36;;;;;;;12.20;6.07;;;13.50;64.60;;;;;;4813777;29;20407;-84
2022/06/04 02:36:06;;;;;;;11.02;7.32;;;13.40;64.60;;;;;;4799606;29;20058;-84
2022/06/04 02:38:48;;;;;;;12.70;7.35;;;13.40;64.50;;;;;;4796802;29;20054;-85
2022/06/04 02:41:21;;;;;;;13.00;7.15;;;13.40;64.50;;;;;;4813482;29;20047;-83
2022/06/04 02:44:07;;;;;;;12.20;6.65;;;13.40;64.50;;;;;;4812115;29;20384;-83
2022/06/04 02:47:05;;;;;;;8.60;6.35;;;13.40;64.40;;;;;;4822785;29;20050;-84
2022/06/04 02:50:09;;;;;;;10.23;5.53;;;13.40;64.30;;;;;;4745545;30;20060;-84
2022/06/04 02:52:36;;;;;;;8.68;4.70;;;13.40;64.10;;;;;;4760516;30;20096;-83
2022/06/04 02:55:10;;;;;;;8.23;5.28;;;13.40;64.00;;;;;;4765955;30;20055;-85
2022/06/04 02:57:39;;;;;;;11.85;5.60;;;13.50;64.00;;;;;;4743671;30;20060;-85
2022/06/04 03:00:09;;;;;;;7.13;4.63;;;13.50;63.80;;;;;;4763221;30;20071;-84
2022/06/04 03:02:36;;;;;;;7.20;6.00;;;13.50;63.60;;;;;;4752850;30;20068;-83
2022/06/04 03:05:19;;;;;;;7.43;5.45;;;13.50;63.60;;;;;;4742531;30;20063;-83
2022/06/04 03:07:49;;;;;;;9.03;5.37;;;13.50;63.50;;;;;;4755271;30;20059;-83
2022/06/04 03:10:24;;;;;;;10.70;5.85;;;13.50;63.30;;;;;;4736756;30;20044;-83
2022/06/04 03:12:50;;;;;;;8.90;5.45;;;13.60;63.30;;;;;;4757917;30;20063;-83
2022/06/04 03:15:16;;;;;;;7.75;5.10;;;13.60;63.40;;;;;;4767264;30;20103;-83
2022/06/04 03:17:44;;;;;;;9.68;5.75;;;13.60;63.20;;;;;;4749877;30;20052;-84
2022/06/04 03:20:11;;;;;;;10.07;6.95;;;13.60;63.10;;;;;;4740451;30;20055;-83
2022/06/04 03:22:37;;;;;;;7.95;5.20;;;13.60;63.20;;;;;;4739606;30;20092;-83
2022/06/04 03:25:04;;;;;;;10.57;4.97;;;13.50;63.20;;;;;;4775007;29;20058;-83
2022/06/04 03:27:30;;;;;;;7.95;5.28;;;13.60;63.20;;;;;;4803402;29;20050;-83
2022/06/04 03:29:56;;;;;;;9.15;6.00;;;13.60;63.20;;;;;;4820322;29;20046;-83
2022/06/04 03:32:21;;;;;;;7.70;5.40;;;13.50;63.00;;;;;;4820326;29;20175;-83
2022/06/04 03:34:47;;;;;;;14.25;7.70;;;13.50;63.10;;;;;;4796074;29;20054;-82
2022/06/04 03:37:13;;;;;;;10.82;6.93;;;13.50;63.40;;;;;;4809372;29;20046;-83
2022/06/04 03:39:38;;;;;;;13.35;6.95;;;13.50;63.30;;;;;;4811252;29;20176;-83
2022/06/04 03:42:05;;;;;;;11.60;6.43;;;13.50;63.40;;;;;;4812189;29;20050;-83
2022/06/04 03:44:30;;;;;;;7.47;5.60;;;13.50;63.60;;;;;;4811863;29;20078;-83
2022/06/04 03:46:56;;;;;;;8.40;5.53;;;13.50;63.60;;;;;;4808319;29;20132;-83
2022/06/04 03:49:22;;;;;;;10.52;5.57;;;13.40;63.50;;;;;;4795945;29;20112;-83
2022/06/04 03:51:48;;;;;;;12.05;5.65;;;13.40;63.60;;;;;;4797342;29;20146;-83
2022/06/04 03:54:14;;;;;;;11.07;5.15;;;13.40;63.70;;;;;;4820194;29;20121;-84
2022/06/04 03:56:40;;;;;;;15.13;7.00;;;13.40;63.80;;;;;;4803832;29;20142;-84
2022/06/04 03:59:06;;;;;;;12.70;7.20;;;13.30;64.00;;;;;;4796885;29;20093;-82
2022/06/04 04:01:32;;;;;;;11.80;6.15;;;13.30;64.10;;;;;;4804558;29;20046;-84
2022/06/04 04:04:00;;;;;;;9.90;5.82;;;13.40;64.30;;;;;;4808326;29;20051;-83
2022/06/04 04:06:29;;;;;;;12.23;6.50;;;13.20;64.30;;;;;;4809358;29;20439;-83
2022/06/04 04:08:55;;;;;;;12.63;6.88;;;13.20;64.60;;;;;;4798605;29;20554;-82
2022/06/04 04:11:24;;;;;;;10.63;5.55;;;13.20;64.70;;;;;;4807763;29;20118;-82
2022/06/04 04:13:51;;;;;;;10.45;5.75;;;13.10;64.90;;;;;;4808144;29;20046;-82
2022/06/04 04:16:18;;;;;;;11.23;5.85;;;13.10;64.90;;;;;;4795962;29;20380;-81
2022/06/04 04:18:44;;;;;;;8.88;5.35;;;13.00;65.00;;;;;;4811040;29;20074;-81
2022/06/04 04:21:16;;;;;;;12.70;6.28;;;13.00;65.20;;;;;;4799897;29;20093;-82
2022/06/04 04:23:43;;;;;;;10.40;5.80;;;13.00;65.40;;;;;;4813418;29;20047;-82
2022/06/04 04:26:11;;;;;;;8.02;5.38;;;12.90;65.50;;;;;;4813065;29;20452;-82
2022/06/04 04:28:37;;;;;;;9.68;5.75;;;12.90;65.70;;;;;;4809135;29;20054;-82
2022/06/04 04:31:11;;;;;;;10.23;6.55;;;12.90;65.80;;;;;;4802944;29;20402;-82
2022/06/04 04:33:36;;;;;;;10.65;6.50;;;12.90;66.00;;;;;;4814298;29;20091;-82
2022/06/04 04:36:02;;;;;;;10.63;5.55;;;12.90;65.90;;;;;;4812266;29;20043;-82
2022/06/04 04:38:28;;;;;;;7.95;5.30;;;12.90;66.30;;;;;;4819909;29;20089;-82
2022/06/04 04:40:54;;;;;;;8.32;5.20;;;12.80;66.10;;;;;;4821289;29;20046;-82
2022/06/04 04:43:20;;;;;;;9.02;5.25;;;12.90;66.30;;;;;;4825289;29;20456;-83
2022/06/04 04:45:45;;;;;;;9.10;5.80;;;12.90;66.20;;;;;;4800179;29;20051;-82
2022/06/04 04:48:13;;;;;;;8.52;5.18;;;12.90;66.40;;;;;;4820681;29;20050;-83
2022/06/04 04:50:45;;;;;;;7.68;5.13;;;12.90;66.60;;;;;;4820872;29;20066;-82
2022/06/04 04:53:11;;;;;;;12.07;5.75;;;12.90;66.50;;;;;;4823676;29;20098;-83
2022/06/04 04:55:38;;;;;;;8.73;4.90;;;12.90;66.60;;;;;;4813688;29;20076;-82
2022/06/04 04:58:04;;;;;;;9.27;5.15;;;12.90;66.50;;;;;;4817743;29;21886;-82
2022/06/04 05:00:30;;;;;;;11.10;5.72;;;12.90;66.70;;;;;;4801414;29;20145;-82
2022/06/04 05:03:00;;;;;;;8.52;4.68;;;12.90;66.80;;;;;;4793780;29;20184;-82
2022/06/04 05:05:27;;;;;;;8.88;5.22;;;12.90;66.90;;;;;;4813664;29;20047;-82
2022/06/04 05:07:52;;;;;;;8.35;4.82;;;13.00;67.10;;;;;;4821485;29;20099;-82
2022/06/04 05:10:18;;;;;;;8.07;4.85;;;13.00;67.30;;;;;;4819435;29;20125;-82
2022/06/04 05:12:44;;;;;;;7.82;4.07;;;13.10;67.40;;;;;;4825582;29;20510;-81
2022/06/04 05:15:10;;;;;;;7.65;4.78;;;13.20;67.40;;;;;;4800832;29;20419;-82
2022/06/04 05:17:36;;;;;;;8.63;5.28;;;13.30;67.30;;;;;;4810454;29;20066;-81
2022/06/04 05:20:03;;;;;;;13.15;5.03;;;13.50;67.30;;;;;;4817525;29;20203;-82
2022/06/04 05:22:29;;;;;;;6.82;4.00;;;13.70;67.20;;;;;;4824464;29;20042;-83
2022/06/04 05:24:54;;;;;;;8.48;4.35;;;14.00;66.60;;;;;;4818649;29;20046;-82
2022/06/04 05:27:20;;;;;;;9.15;3.65;;;14.20;66.10;;;;;;4804737;29;20064;-82
2022/06/04 05:29:45;;;;;;;8.02;3.45;;;14.40;65.30;;;;;;4814815;29;20043;-83
2022/06/04 05:32:11;;;;;;;6.72;3.90;;;14.50;64.80;;;;;;4805773;29;20043;-83
2022/06/04 05:34:37;;;;;;;7.88;3.33;;;14.70;64.00;;;;;;4793922;29;20061;-83
2022/06/04 05:37:03;;;;;;;8.27;2.97;;;14.90;63.90;;;;;;4797721;29;20404;-84
2022/06/04 05:39:32;;;;;;;4.88;3.53;;;15.00;63.60;;;;;;4795419;29;20050;-83
2022/06/04 05:42:02;;;;;;;9.75;3.00;;;15.20;63.20;;;;;;4794804;29;20495;-84
2022/06/04 05:44:29;;;;;;;5.57;2.83;;;15.40;62.80;;;;;;4822100;29;20072;-83
2022/06/04 05:46:54;;;;;;;6.43;3.13;;;15.70;62.30;;;;;;4804144;29;20054;-84
2022/06/04 05:49:20;;;;;;;4.53;2.80;;;15.90;61.50;;;;;;4798563;29;20089;-83
2022/06/04 05:51:47;;;;;;;6.53;2.63;;;16.10;61.10;;;;;;4798071;29;20058;-84
2022/06/04 05:54:14;;;;;;;7.25;3.55;;;16.30;60.90;;;;;;4810556;29;20469;-84
2022/06/04 05:56:43;;;;;;;6.35;3.15;;;16.50;59.70;;;;;;4796048;29;20074;-84
2022/06/04 05:59:11;;;;;;;5.93;3.05;;;16.60;59.50;;;;;;4806700;29;20158;-84
2022/06/04 06:01:38;;;;;;;8.10;3.13;;;16.70;59.20;;;;;;4818803;29;20053;-85
2022/06/04 06:04:06;;;;;;;6.53;2.90;;;16.80;58.50;;;;;;4807561;29;20050;-84
2022/06/04 06:06:33;;;;;;;5.63;2.90;;;17.00;58.60;;;;;;4818892;29;20087;-83
2022/06/04 06:09:02;;;;;;;4.47;2.47;;;17.00;58.00;;;;;;4803159;29;20134;-85
2022/06/04 06:11:28;;;;;;;6.57;3.40;;;17.10;57.70;;;;;;4816313;29;20057;-84
2022/06/04 06:13:54;;;;;;;6.65;3.20;;;17.10;57.40;;;;;;4823029;29;20046;-83
2022/06/04 06:16:30;;;;;;;4.60;2.78;;;17.10;57.50;;;;;;4808267;29;20400;-84
2022/06/04 06:18:56;;;;;;;4.82;2.60;;;17.10;57.50;;;;;;4824362;29;20135;-82
2022/06/04 06:21:24;;;;;;;4.22;2.50;;;17.20;57.60;;;;;;4814891;29;20043;-83
2022/06/04 06:23:50;;;;;;;4.60;2.80;;;17.40;57.50;;;;;;4812396;29;20079;-82
2022/06/04 06:26:22;;;;;;;4.72;2.63;;;17.50;57.10;;;;;;4817209;29;20046;-82
2022/06/04 06:28:48;;;;;;;5.68;3.53;;;17.60;57.10;;;;;;4807761;29;20038;-84
2022/06/04 06:31:17;;;;;;;4.85;3.15;;;17.60;56.90;;;;;;4797735;29;20051;-83
2022/06/04 06:33:43;;;;;;;7.43;2.95;;;17.70;56.40;;;;;;4805733;29;20058;-84
2022/06/04 06:36:11;;;;;;;4.72;2.80;;;17.70;56.50;;;;;;4800799;29;20088;-82
2022/06/04 06:38:37;;;;;;;6.30;3.17;;;17.80;56.20;;;;;;4811057;29;20051;-83
2022/06/04 06:41:04;;;;;;;4.60;3.17;;;17.80;56.60;;;;;;4820907;29;20540;-84
2022/06/04 06:43:38;;;;;;;5.40;2.72;;;18.00;56.70;;;;;;4821521;29;20076;-84
2022/06/04 06:46:09;;;;;;;6.63;3.20;;;18.10;56.30;;;;;;4813318;29;20047;-84
2022/06/04 06:48:37;;;;;;;5.22;2.95;;;18.20;55.30;;;;;;4815014;29;20059;-84
2022/06/04 06:51:15;;;;;;;6.45;3.30;;;18.30;55.30;;;;;;4818076;29;20054;-84
2022/06/04 06:53:41;;;;;;;4.30;3.10;;;18.40;54.70;;;;;;4823900;29;20067;-83
2022/06/04 06:56:18;;;;;;;4.85;3.17;;;18.40;54.80;;;;;;4802152;29;20076;-84
2022/06/04 06:58:45;;;;;;;5.95;3.25;;;18.50;54.10;;;;;;4812294;29;20054;-84
2022/06/04 07:01:11;;;;;;;3.67;2.63;;;18.40;54.30;;;;;;4813275;29;20129;-84
2022/06/04 07:03:41;;;;;;;5.32;2.88;;;18.40;54.20;;;;;;4824818;29;20061;-84
2022/06/04 07:06:08;;;;;;;3.83;2.45;;;18.50;54.40;;;;;;4789895;29;20072;-84
2022/06/04 07:08:35;;;;;;;4.30;2.75;;;18.50;54.40;;;;;;4811981;29;20057;-83
2022/06/04 07:11:01;;;;;;;7.35;3.38;;;18.60;54.70;;;;;;4793731;29;20043;-84
2022/06/04 07:13:27;;;;;;;5.72;2.83;;;18.70;53.90;;;;;;4824347;29;20058;-84
2022/06/04 07:15:52;;;;;;;6.32;3.40;;;18.80;53.50;;;;;;4823809;29;20054;-85
2022/06/04 07:18:19;;;;;;;3.35;2.42;;;19.00;52.90;;;;;;4799111;29;20046;-83
2022/06/04 07:20:45;;;;;;;5.20;3.10;;;19.00;53.00;;;;;;4810213;29;20067;-84
2022/06/04 07:23:11;;;;;;;4.47;2.40;;;19.10;53.10;;;;;;4808508;29;20079;-84
2022/06/04 07:25:41;;;;;;;3.88;2.70;;;19.20;53.20;;;;;;4820865;29;20084;-84
2022/06/04 07:28:09;;;;;;;5.70;3.08;;;19.40;53.10;;;;;;4800079;29;20543;-84
2022/06/04 07:30:34;;;;;;;3.55;2.40;;;19.60;52.50;;;;;;4801116;29;20042;-83
2022/06/04 07:33:00;;;;;;;5.72;3.10;;;19.70;52.60;;;;;;4825579;29;20453;-84
2022/06/04 07:35:26;;;;;;;4.55;3.08;;;19.80;52.10;;;;;;4825054;29;20413;-83
2022/06/04 07:37:51;;;;;;;6.63;3.10;;;19.80;51.70;;;;;;4794913;29;20074;-83
2022/06/04 07:40:17;;;;;;;6.78;3.33;;;19.90;51.90;;;;;;4818268;29;20055;-84
2022/06/04 07:42:42;;;;;;;4.18;2.42;;;19.90;51.30;;;;;;4806783;29;20140;-83
2022/06/04 07:45:09;;;;;;;5.22;3.00;;;20.00;51.40;;;;;;4824672;29;20082;-85
2022/06/04 07:47:35;;;;;;;4.10;2.60;;;20.30;51.20;;;;;;4822963;29;20123;-83
2022/06/04 07:50:02;;;;;;;4.95;2.38;;;20.50;50.80;;;;;;4822257;29;20088;-85
2022/06/04 07:52:27;;;;;;;6.63;3.00;;;20.60;50.00;;;;;;4808425;29;20054;-84
2022/06/04 07:54:53;;;;;;;4.18;2.90;;;20.70;49.70;;;;;;4813799;29;20054;-84
2022/06/04 07:57:19;;;;;;;5.93;2.80;;;20.90;49.70;;;;;;4817915;29;20117;-83
2022/06/04 07:59:45;;;;;;;6.55;2.95;;;21.00;49.40;;;;;;4824684;29;20047;-84
2022/06/04 08:02:12;;;;;;;5.45;3.05;;;21.10;49.30;;;;;;4815247;29;20077;-82
2022/06/04 08:04:39;;;;;;;6.00;2.88;;;21.20;49.10;;;;;;4803943;29;20405;-83
2022/06/04 08:07:06;;;;;;;5.40;2.90;;;21.20;49.00;;;;;;4798261;29;20050;-82
2022/06/04 08:09:32;;;;;;;6.43;2.67;;;21.30;49.40;;;;;;4824101;29;20061;-83
2022/06/04 08:11:58;;;;;;;5.47;2.78;;;21.30;48.80;;;;;;4824954;29;20086;-83
2022/06/04 08:14:25;;;;;;;5.72;3.38;;;21.40;48.70;;;;;;4818423;29;20074;-84
2022/06/04 08:17:00;;;;;;;6.00;3.03;;;21.40;48.40;;;;;;4787883;29;20047;-83
2022/06/04 08:19:30;;;;;;;5.00;2.85;;;21.40;47.70;;;;;;4824158;29;20049;-84
2022/06/04 08:21:56;;;;;;;6.85;3.28;;;21.30;47.80;;;;;;4802185;29;20059;-83
2022/06/04 08:24:23;;;;;;;5.15;3.30;;;21.30;47.90;;;;;;4804085;29;20137;-84
2022/06/04 08:26:58;;;;;;;5.72;3.45;;;21.10;48.00;;;;;;4806059;29;20065;-84
2022/06/04 08:29:30;;;;;;;4.03;2.70;;;20.90;48.20;;;;;;4811952;29;20035;-85
2022/06/04 08:31:56;;;;;;;7.18;3.30;;;20.70;49.00;;;;;;4812265;29;20440;-83
2022/06/04 08:34:22;;;;;;;5.22;2.83;;;20.60;49.00;;;;;;4814021;29;20043;-83
2022/06/04 08:36:47;;;;;;;3.25;2.50;;;20.70;48.60;;;;;;4807861;29;20054;-85
2022/06/04 08:39:13;;;;;;;3.97;3.10;;;20.80;49.50;;;;;;4811992;29;20094;-84
2022/06/04 08:41:45;;;;;;;3.95;2.45;;;20.90;49.10;;;;;;4824885;29;20052;-84
2022/06/04 08:44:22;;;;;;;4.80;3.00;;;21.10;48.70;;;;;;4830059;29;20050;-85
2022/06/04 08:46:53;;;;;;;5.32;3.67;;;21.30;48.40;;;;;;4806758;29;20054;-85
2022/06/04 08:49:29;;;;;;;3.92;2.72;;;21.40;47.80;;;;;;4799254;29;20402;-84
2022/06/04 08:51:56;;;;;;;4.25;3.13;;;21.60;47.60;;;;;;4819789;29;20503;-83
2022/06/04 09:00:45;;;;;;;6.07;2.92;;;22.00;47.60;;;;;;4819016;29;20055;-83
2022/06/04 09:03:19;;;;;;;4.03;2.97;;;22.20;47.30;;;;;;4757841;30;20054;-85
2022/06/04 09:06:04;;;;;;;4.80;3.00;;;22.30;46.60;;;;;;4760316;30;20095;-87
2022/06/04 09:08:38;;;;;;;7.47;3.22;;;22.30;45.40;;;;;;4773709;30;20056;-89
2022/06/04 09:11:13;;;;;;;4.05;2.70;;;22.30;45.40;;;;;;4753148;30;20070;-90
2022/06/04 09:14:00;;;;;;;4.38;2.90;;;22.20;45.50;;;;;;4763909;30;20613;-86
2022/06/04 09:16:36;;;;;;;4.68;2.80;;;22.10;45.50;;;;;;4753511;30;20043;-82
2022/06/04 09:19:11;;;;;;;5.38;3.00;;;22.00;45.60;;;;;;4763276;30;20385;-82
2022/06/04 09:21:39;;;;;;;4.35;2.88;;;21.80;45.80;;;;;;4743115;30;20062;-85
2022/06/04 09:24:05;;;;;;;4.25;3.25;;;21.70;46.30;;;;;;4750637;30;20507;-84
2022/06/04 09:26:42;;;;;;;6.05;3.05;;;21.70;47.20;;;;;;4739310;30;20056;-85
2022/06/04 09:29:36;;;;;;;5.88;3.10;;;21.60;47.70;;;;;;4766417;30;20051;-85
2022/06/04 09:32:21;;;;;;;4.70;3.05;;;21.50;47.80;;;;;;4762592;30;20503;-84
2022/06/04 09:34:50;;;;;;;4.65;3.33;;;21.30;47.90;;;;;;4739979;30;20055;-85
2022/06/04 09:37:19;;;;;;;5.38;2.83;;;21.30;47.30;;;;;;4774305;29;20133;-83
2022/06/04 09:39:47;;;;;;;4.43;3.00;;;21.20;47.20;;;;;;4798034;29;20137;-85
2022/06/04 09:42:15;;;;;;;6.55;3.30;;;21.30;48.10;;;;;;4825913;29;20465;-84
2022/06/04 09:44:51;;;;;;;4.18;2.95;;;21.30;47.50;;;;;;4821776;29;20603;-84
2022/06/04 09:47:39;;;;;;;4.68;3.13;;;21.30;47.40;;;;;;4808643;29;20058;-84
2022/06/04 09:50:19;;;;;;;6.05;4.07;;;21.30;47.60;;;;;;4811965;29;20070;-84
2022/06/04 09:52:55;;;;;;;3.60;2.88;;;21.30;47.50;;;;;;4824944;29;20134;-82
2022/06/04 09:55:23;;;;;;;4.25;3.25;;;21.30;47.80;;;;;;4814913;29;20463;-82
2022/06/04 09:58:04;;;;;;;5.03;3.58;;;21.40;47.90;;;;;;4812062;29;20133;-83
2022/06/04 10:00:35;;;;;;;4.82;2.97;;;21.40;48.00;;;;;;4815421;29;20091;-82
2022/06/04 10:03:14;;;;;;;4.53;3.42;;;21.40;48.70;;;;;;4805263;29;20054;-83
2022/06/04 10:05:58;;;;;;;4.63;3.55;;;21.40;48.80;;;;;;4806593;29;20046;-82
2022/06/04 10:08:26;;;;;;;6.78;3.35;;;21.40;49.60;;;;;;4796173;29;20086;-91
2022/06/04 10:11:04;;;;;;;6.80;4.30;;;21.50;50.00;;;;;;4818462;29;20062;-87
2022/06/04 10:13:42;;;;;;;6.28;3.63;;;21.60;49.00;;;;;;4793626;29;20058;-88
2022/06/04 10:16:21;;;;;;;4.70;3.17;;;21.70;49.30;;;;;;4815251;29;20054;-88
2022/06/04 10:18:55;;;;;;;4.68;3.47;;;21.80;49.60;;;;;;4808656;29;20062;-87
2022/06/04 10:21:26;;;;;;;5.40;3.35;;;21.90;48.50;;;;;;4806910;29;20054;-86
2022/06/04 10:23:57;;;;;;;4.75;3.47;;;21.90;48.20;;;;;;4806977;29;20086;-86
2022/06/04 10:26:41;;;;;;;5.13;3.60;;;21.80;48.50;;;;;;4809299;29;20051;-88
2022/06/04 10:29:16;;;;;;;6.30;3.20;;;21.70;49.10;;;;;;4795244;29;20519;-86
2022/06/04 10:31:49;;;;;;;3.95;3.00;;;21.70;48.80;;;;;;4820726;29;20062;-86
2022/06/04 10:34:26;;;;;;;6.30;3.78;;;21.70;48.50;;;;;;4806088;29;20111;-86
2022/06/04 10:37:03;;;;;;;4.95;3.58;;;21.80;48.40;;;;;;4820218;29;20167;-87
2022/06/04 10:40:06;;;;;;;7.15;3.17;;;21.90;48.20;;;;;;4800299;29;20060;-87
2022/06/04 10:43:06;;;;;;;4.88;3.15;;;22.00;47.10;;;;;;4789471;29;20062;-87
2022/06/04 10:45:49;;;;;;;5.97;3.30;;;22.10;48.50;;;;;;4808166;29;20133;-85
2022/06/04 10:48:20;;;;;;;3.53;2.83;;;22.20;48.10;;;;;;4820688;29;20127;-85
2022/06/04 10:51:37;;;;;;;4.95;3.08;;;22.30;48.00;;;;;;4824499;29;20318;-84
2022/06/04 10:54:11;;;;;;;5.07;3.70;;;22.30;48.50;;;;;;4786815;29;20133;-84
2022/06/04 10:56:49;;;;;;;5.57;3.33;;;22.40;47.40;;;;;;4795784;29;20507;-85
2022/06/04 10:59:27;;;;;;;4.47;3.22;;;22.40;47.40;;;;;;4801664;29;20063;-86
2022/06/04 11:02:00;;;;;;;5.82;3.40;;;22.40;48.20;;;;;;4781973;29;20154;-83
2022/06/04 11:04:49;;;;;;;6.72;3.88;;;22.40;47.80;;;;;;4771015;29;20059;-85
2022/06/04 11:07:29;;;;;;;5.43;3.47;;;22.40;48.30;;;;;;4797276;29;20046;-86
2022/06/04 11:09:56;;;;;;;6.65;3.63;;;22.50;48.00;;;;;;4785909;29;20047;-85
2022/06/04 11:12:47;;;;;;;4.07;3.17;;;22.60;47.40;;;;;;4795556;29;20372;-86
2022/06/04 11:15:25;;;;;;;4.00;2.83;;;22.60;47.50;;;;;;4750686;30;20096;-87
2022/06/04 11:17:56;;;;;;;5.82;3.20;;;22.70;46.70;;;;;;4750881;30;20082;-85
2022/06/04 11:20:27;;;;;;;4.70;3.58;;;22.70;46.40;;;;;;4752730;30;20059;-87
2022/06/04 11:22:53;;;;;;;5.28;3.38;;;22.70;46.50;;;;;;4737154;30;20109;-87
2022/06/04 11:25:24;;;;;;;4.93;2.78;;;22.80;47.10;;;;;;4737672;30;20052;-85
2022/06/04 11:27:59;;;;;;;4.18;2.70;;;22.90;46.80;;;;;;4751569;30;20056;-86
2022/06/04 11:30:46;;;;;;;4.35;2.80;;;23.00;46.40;;;;;;4752803;30;20463;-86
2022/06/04 11:33:32;;;;;;;6.63;3.35;;;23.00;46.60;;;;;;4755762;30;20152;-87
2022/06/04 11:36:08;;;;;;;6.50;3.42;;;23.00;46.20;;;;;;4764336;30;20044;-87
2022/06/04 11:38:56;;;;;;;4.10;2.78;;;23.00;45.60;;;;;;4766497;30;20063;-87
2022/06/04 11:41:56;;;;;;;5.70;3.10;;;23.00;46.10;;;;;;4765602;30;20051;-88
2022/06/04 11:44:39;;;;;;;5.40;3.00;;;22.90;45.50;;;;;;4769065;30;20378;-87
2022/06/04 11:47:15;;;;;;;4.82;3.05;;;22.90;46.10;;;;;;4768559;30;20520;-86
2022/06/04 11:50:11;;;;;;;4.15;2.75;;;22.90;46.00;;;;;;4769329;30;20116;-86
2022/06/04 11:52:54;;;;;;;3.90;3.03;;;22.90;45.50;;;;;;4804331;29;20570;-84
2022/06/04 11:55:29;;;;;;;3.95;2.17;;;22.80;45.20;;;;;;4806550;29;20055;-86
2022/06/04 11:58:13;;;;;;;5.25;2.67;;;22.80;44.40;;;;;;4825197;29;20054;-87
2022/06/04 12:00:44;;;;;;;3.38;2.67;;;22.80;43.90;;;;;;4823172;29;20055;-86
2022/06/04 12:03:28;;;;;;;3.22;2.40;;;22.80;45.00;;;;;;4820249;29;20062;-86
2022/06/04 12:06:00;;;;;;;2.45;2.10;;;22.70;44.60;;;;;;4823079;29;20051;-88
2022/06/04 12:08:31;;;;;;;3.97;2.60;;;22.70;45.70;;;;;;4797101;29;20092;-84
2022/06/04 12:10:56;;;;;;;4.28;2.45;;;22.70;45.60;;;;;;4801469;29;20480;-86
2022/06/04 12:13:52;;;;;;;4.40;2.65;;;22.80;45.80;;;;;;4806663;29;20062;-83
2022/06/04 12:16:46;;;;;;;5.03;2.80;;;22.70;46.00;;;;;;4790512;29;20134;-82
2022/06/04 12:25:13;;;;;;;3.67;2.50;;;22.70;45.70;;;;;;4705625;30;20558;-82
2022/06/04 12:27:54;;;;;;;5.30;2.70;;;22.70;45.80;;;;;;4702141;30;20065;-83
2022/06/04 12:30:30;;;;;;;4.05;2.60;;;22.70;45.60;;;;;;4733390;30;20498;-83
2022/06/04 12:32:56;;;;;;;4.57;2.63;;;22.70;45.20;;;;;;4718271;30;20056;-82
2022/06/04 12:35:23;;;;;;;4.90;2.83;;;22.70;45.20;;;;;;4733049;30;20190;-82
2022/06/04 12:37:58;;;;;;;5.22;2.70;;;22.70;45.40;;;;;;4718657;30;20163;-81
2022/06/04 12:40:26;;;;;;;4.45;2.65;;;22.80;46.10;;;;;;4701503;30;20125;-82
2022/06/04 12:43:15;;;;;;;4.35;2.65;;;22.80;46.20;;;;;;4703245;30;20053;-83
2022/06/04 12:45:42;;;;;;;6.80;3.00;;;22.90;45.80;;;;;;4733217;30;20465;-82
2022/06/04 12:48:32;;;;;;;5.43;2.83;;;22.80;45.50;;;;;;4718504;30;20084;-82
2022/06/04 12:51:08;;;;;;;5.32;2.75;;;22.80;46.20;;;;;;4733091;30;20048;-83
2022/06/04 12:53:45;;;;;;;3.90;2.80;;;22.80;46.40;;;;;;4717738;30;20132;-82
2022/06/04 12:56:28;;;;;;;3.78;2.47;;;22.90;47.10;;;;;;4736992;30;20060;-82
2022/06/04 12:58:56;;;;;;;3.65;2.83;;;22.90;47.50;;;;;;4793274;29;20092;-82
2022/06/04 13:01:42;;;;;;;8.88;2.75;;;23.00;47.00;;;;;;4828513;29;20051;-82
2022/06/04 13:04:10;;;;;;;4.40;2.85;;;23.00;46.40;;;;;;4826402;29;20082;-82
2022/06/04 13:06:49;;;;;;;3.28;2.58;;;23.00;46.80;;;;;;4811955;29;20085;-82
2022/06/04 13:09:36;;;;;;;4.95;2.55;;;23.10;47.10;;;;;;4811678;29;20050;-82
2022/06/04 13:12:47;;;;;;;4.35;2.53;;;23.10;47.00;;;;;;4824095;29;20476;-82
2022/06/04 13:15:28;;;;;;;5.00;3.10;;;23.30;46.70;;;;;;4811040;29;20070;-83
2022/06/04 13:17:54;;;;;;;4.60;3.10;;;23.20;46.60;;;;;;4812991;29;20050;-82
2022/06/04 13:20:58;;;;;;;5.47;2.80;;;23.20;46.50;;;;;;4808957;29;20061;-82
2022/06/04 13:23:39;;;;;;;8.23;3.53;;;23.20;46.50;;;;;;4793581;29;20055;-83
2022/06/04 13:26:31;;;;;;;4.50;3.15;;;23.10;46.10;;;;;;4811010;29;20061;-83
2022/06/04 13:28:58;;;;;;;4.88;2.70;;;23.10;46.80;;;;;;4810805;29;20172;-83
2022/06/04 13:31:32;;;;;;;5.80;3.10;;;23.10;47.30;;;;;;4809827;29;20082;-83